sensor_id;sensor_type;location;lat;lon;timestamp;pressure;altitude;pressure_sealevel;temperature;humidity
70488;BME280;57976;48.174;16.370;2023-03-18T00:00:59;99170.81;;;6.19;45.27
70488;BME280;57976;48.174;16.370;2023-03-18T00:03:04;99164.77;;;6.16;45.19
70488;BME280;57976;48.174;16.370;2023-03-18T00:05:11;99163.94;;;6.15;45.51
70488;BME280;57976;48.174;16.370;2023-03-18T00:07:16;99159.92;;;6.11;45.91
70488;BME280;57976;48.174;16.370;2023-03-18T00:09:21;99158.30;;;6.09;45.78
70488;BME280;57976;48.174;16.370;2023-03-18T00:11:26;99159.91;;;6.05;45.92
70488;BME280;57976;48.174;16.370;2023-03-18T00:13:34;99163.09;;;6.04;46.04
70488;BME280;57976;48.174;16.370;2023-03-18T00:15:39;99164.92;;;6.02;46.08
70488;BME280;57976;48.174;16.370;2023-03-18T00:17:43;99163.38;;;6.00;46.13
70488;BME280;57976;48.174;16.370;2023-03-18T00:19:49;99160.48;;;5.97;46.28
70488;BME280;57976;48.174;16.370;2023-03-18T00:21:54;99159.27;;;5.96;46.14
70488;BME280;57976;48.174;16.370;2023-03-18T00:23:58;99159.05;;;5.94;46.23
70488;BME280;57976;48.174;16.370;2023-03-18T00:26:03;99157.09;;;5.91;46.18
70488;BME280;57976;48.174;16.370;2023-03-18T00:28:09;99158.05;;;5.91;46.44
70488;BME280;57976;48.174;16.370;2023-03-18T00:32:20;99152.48;;;5.89;46.39
70488;BME280;57976;48.174;16.370;2023-03-18T00:34:25;99155.14;;;5.87;46.71
70488;BME280;57976;48.174;16.370;2023-03-18T00:36:30;99155.30;;;5.85;46.58
70488;BME280;57976;48.174;16.370;2023-03-18T00:38:34;99154.61;;;5.82;46.84
70488;BME280;57976;48.174;16.370;2023-03-18T00:40:39;99149.89;;;5.80;46.73
70488;BME280;57976;48.174;16.370;2023-03-18T00:42:46;99150.28;;;5.77;46.59
70488;BME280;57976;48.174;16.370;2023-03-18T00:44:51;99149.16;;;5.76;46.73
70488;BME280;57976;48.174;16.370;2023-03-18T00:46:56;99150.13;;;5.74;46.88
70488;BME280;57976;48.174;16.370;2023-03-18T00:49:03;99148.16;;;5.71;46.89
70488;BME280;57976;48.174;16.370;2023-03-18T00:51:08;99152.95;;;5.72;46.88
70488;BME280;57976;48.174;16.370;2023-03-18T00:53:13;99155.36;;;5.71;47.01
70488;BME280;57976;48.174;16.370;2023-03-18T00:55:18;99155.13;;;5.71;46.99
70488;BME280;57976;48.174;16.370;2023-03-18T00:57:23;99147.86;;;5.71;47.17
70488;BME280;57976;48.174;16.370;2023-03-18T00:59:30;99145.83;;;5.70;47.24
70488;BME280;57976;48.174;16.370;2023-03-18T01:01:35;99145.55;;;5.71;47.16
70488;BME280;57976;48.174;16.370;2023-03-18T01:03:41;99146.91;;;5.71;47.22
70488;BME280;57976;48.174;16.370;2023-03-18T01:05:47;99146.31;;;5.70;47.01
70488;BME280;57976;48.174;16.370;2023-03-18T01:07:52;99143.73;;;5.71;47.28
70488;BME280;57976;48.174;16.370;2023-03-18T01:09:56;99139.91;;;5.72;46.92
70488;BME280;57976;48.174;16.370;2023-03-18T01:12:05;99138.02;;;5.72;47.30
70488;BME280;57976;48.174;16.370;2023-03-18T01:14:10;99138.55;;;5.72;47.02
70488;BME280;57976;48.174;16.370;2023-03-18T01:16:15;99137.23;;;5.71;47.21
70488;BME280;57976;48.174;16.370;2023-03-18T01:18:20;99137.04;;;5.70;47.18
70488;BME280;57976;48.174;16.370;2023-03-18T01:20:28;99133.04;;;5.69;47.05
70488;BME280;57976;48.174;16.370;2023-03-18T01:22:34;99132.33;;;5.68;47.04
70488;BME280;57976;48.174;16.370;2023-03-18T01:24:38;99127.67;;;5.67;47.01
70488;BME280;57976;48.174;16.370;2023-03-18T01:26:43;99126.20;;;5.66;47.20
70488;BME280;57976;48.174;16.370;2023-03-18T01:28:48;99123.89;;;5.66;47.15
70488;BME280;57976;48.174;16.370;2023-03-18T01:30:53;99119.30;;;5.65;47.09
70488;BME280;57976;48.174;16.370;2023-03-18T01:32:58;99116.34;;;5.63;47.74
70488;BME280;57976;48.174;16.370;2023-03-18T01:35:06;99116.77;;;5.62;47.34
70488;BME280;57976;48.174;16.370;2023-03-18T01:37:12;99119.81;;;5.60;47.58
70488;BME280;57976;48.174;16.370;2023-03-18T01:39:18;99119.64;;;5.57;47.46
70488;BME280;57976;48.174;16.370;2023-03-18T01:41:24;99115.91;;;5.56;47.43
70488;BME280;57976;48.174;16.370;2023-03-18T01:43:32;99119.33;;;5.55;47.40
70488;BME280;57976;48.174;16.370;2023-03-18T01:45:38;99119.38;;;5.55;47.46
70488;BME280;57976;48.174;16.370;2023-03-18T01:47:43;99119.80;;;5.54;47.54
70488;BME280;57976;48.174;16.370;2023-03-18T01:49:49;99118.05;;;5.52;47.60
70488;BME280;57976;48.174;16.370;2023-03-18T01:51:56;99116.59;;;5.50;47.38
70488;BME280;57976;48.174;16.370;2023-03-18T01:54:04;99115.98;;;5.49;47.52
70488;BME280;57976;48.174;16.370;2023-03-18T01:56:12;99116.23;;;5.49;47.61
70488;BME280;57976;48.174;16.370;2023-03-18T01:58:21;99112.40;;;5.47;47.58
70488;BME280;57976;48.174;16.370;2023-03-18T02:00:27;99114.01;;;5.45;47.25
70488;BME280;57976;48.174;16.370;2023-03-18T02:02:33;99117.25;;;5.44;47.94
70488;BME280;57976;48.174;16.370;2023-03-18T02:04:40;99115.73;;;5.44;47.57
70488;BME280;57976;48.174;16.370;2023-03-18T02:06:46;99122.26;;;5.44;47.67
70488;BME280;57976;48.174;16.370;2023-03-18T02:08:50;99124.27;;;5.45;47.65
70488;BME280;57976;48.174;16.370;2023-03-18T02:10:55;99125.75;;;5.46;47.58
70488;BME280;57976;48.174;16.370;2023-03-18T02:13:04;99130.24;;;5.45;47.53
70488;BME280;57976;48.174;16.370;2023-03-18T02:15:15;99131.27;;;5.43;47.99
70488;BME280;57976;48.174;16.370;2023-03-18T02:17:23;99137.13;;;5.43;47.75
70488;BME280;57976;48.174;16.370;2023-03-18T02:19:38;99133.48;;;5.42;47.77
70488;BME280;57976;48.174;16.370;2023-03-18T02:21:50;99144.45;;;5.42;47.95
70488;BME280;57976;48.174;16.370;2023-03-18T02:24:02;99141.98;;;5.42;47.82
70488;BME280;57976;48.174;16.370;2023-03-18T02:26:14;99142.42;;;5.41;47.96
70488;BME280;57976;48.174;16.370;2023-03-18T02:28:25;99144.80;;;5.41;48.05
70488;BME280;57976;48.174;16.370;2023-03-18T02:30:34;99149.95;;;5.40;48.28
70488;BME280;57976;48.174;16.370;2023-03-18T02:32:42;99148.77;;;5.40;47.86
70488;BME280;57976;48.174;16.370;2023-03-18T02:34:49;99149.65;;;5.39;48.16
70488;BME280;57976;48.174;16.370;2023-03-18T02:36:54;99152.16;;;5.39;48.28
70488;BME280;57976;48.174;16.370;2023-03-18T02:38:59;99151.30;;;5.39;48.11
70488;BME280;57976;48.174;16.370;2023-03-18T02:41:03;99150.65;;;5.39;48.30
70488;BME280;57976;48.174;16.370;2023-03-18T02:43:19;99150.58;;;5.39;48.21
70488;BME280;57976;48.174;16.370;2023-03-18T02:45:37;99153.26;;;5.39;48.07
70488;BME280;57976;48.174;16.370;2023-03-18T02:47:48;99148.15;;;5.37;48.41
70488;BME280;57976;48.174;16.370;2023-03-18T02:49:54;99145.84;;;5.36;48.55
70488;BME280;57976;48.174;16.370;2023-03-18T02:51:59;99143.75;;;5.36;48.66
70488;BME280;57976;48.174;16.370;2023-03-18T02:54:10;99147.89;;;5.37;48.20
70488;BME280;57976;48.174;16.370;2023-03-18T02:56:17;99150.19;;;5.37;48.63
70488;BME280;57976;48.174;16.370;2023-03-18T02:58:21;99156.59;;;5.36;48.75
70488;BME280;57976;48.174;16.370;2023-03-18T03:00:29;99157.08;;;5.35;48.94
70488;BME280;57976;48.174;16.370;2023-03-18T03:02:34;99163.06;;;5.33;48.70
70488;BME280;57976;48.174;16.370;2023-03-18T03:04:39;99162.94;;;5.31;48.83
70488;BME280;57976;48.174;16.370;2023-03-18T03:06:44;99163.59;;;5.30;48.74
70488;BME280;57976;48.174;16.370;2023-03-18T03:08:49;99173.20;;;5.31;48.63
70488;BME280;57976;48.174;16.370;2023-03-18T03:10:54;99174.07;;;5.30;49.03
70488;BME280;57976;48.174;16.370;2023-03-18T03:13:00;99175.45;;;5.28;48.92
70488;BME280;57976;48.174;16.370;2023-03-18T03:15:08;99179.13;;;5.27;49.13
70488;BME280;57976;48.174;16.370;2023-03-18T03:17:15;99184.95;;;5.27;48.62
70488;BME280;57976;48.174;16.370;2023-03-18T03:19:20;99188.45;;;5.27;49.05
70488;BME280;57976;48.174;16.370;2023-03-18T03:21:25;99193.48;;;5.26;49.10
70488;BME280;57976;48.174;16.370;2023-03-18T03:23:30;99196.23;;;5.25;49.02
70488;BME280;57976;48.174;16.370;2023-03-18T03:25:35;99196.20;;;5.23;49.09
70488;BME280;57976;48.174;16.370;2023-03-18T03:27:40;99202.08;;;5.21;49.15
70488;BME280;57976;48.174;16.370;2023-03-18T03:29:44;99206.48;;;5.19;49.18
70488;BME280;57976;48.174;16.370;2023-03-18T03:31:49;99211.42;;;5.18;49.20
70488;BME280;57976;48.174;16.370;2023-03-18T03:33:54;99215.60;;;5.17;49.26
70488;BME280;57976;48.174;16.370;2023-03-18T03:35:59;99218.24;;;5.15;49.58
70488;BME280;57976;48.174;16.370;2023-03-18T03:38:04;99226.30;;;5.14;49.69
70488;BME280;57976;48.174;16.370;2023-03-18T03:40:12;99230.58;;;5.13;49.61
70488;BME280;57976;48.174;16.370;2023-03-18T03:42:17;99231.34;;;5.13;49.84
70488;BME280;57976;48.174;16.370;2023-03-18T03:44:22;99233.16;;;5.11;49.68
70488;BME280;57976;48.174;16.370;2023-03-18T03:46:27;99235.21;;;5.11;49.74
70488;BME280;57976;48.174;16.370;2023-03-18T03:48:35;99238.27;;;5.09;49.74
70488;BME280;57976;48.174;16.370;2023-03-18T03:50:40;99244.03;;;5.06;49.66
70488;BME280;57976;48.174;16.370;2023-03-18T03:52:45;99250.33;;;5.08;49.87
70488;BME280;57976;48.174;16.370;2023-03-18T03:54:49;99250.56;;;5.08;49.90
70488;BME280;57976;48.174;16.370;2023-03-18T03:56:54;99258.48;;;5.08;49.69
70488;BME280;57976;48.174;16.370;2023-03-18T03:58:59;99260.30;;;5.07;49.91
70488;BME280;57976;48.174;16.370;2023-03-18T04:01:11;99260.03;;;5.06;49.98
70488;BME280;57976;48.174;16.370;2023-03-18T04:03:18;99261.33;;;5.06;50.10
70488;BME280;57976;48.174;16.370;2023-03-18T04:05:24;99259.05;;;5.06;50.01
70488;BME280;57976;48.174;16.370;2023-03-18T04:07:29;99255.81;;;5.03;49.82
70488;BME280;57976;48.174;16.370;2023-03-18T04:09:34;99256.77;;;5.03;50.18
70488;BME280;57976;48.174;16.370;2023-03-18T04:11:39;99264.13;;;5.03;50.13
70488;BME280;57976;48.174;16.370;2023-03-18T04:13:44;99264.73;;;5.00;49.92
70488;BME280;57976;48.174;16.370;2023-03-18T04:15:48;99268.45;;;5.02;50.10
70488;BME280;57976;48.174;16.370;2023-03-18T04:17:55;99265.26;;;5.02;50.10
70488;BME280;57976;48.174;16.370;2023-03-18T04:20:00;99267.30;;;5.03;50.31
70488;BME280;57976;48.174;16.370;2023-03-18T04:22:07;99263.80;;;5.03;50.22
70488;BME280;57976;48.174;16.370;2023-03-18T04:24:11;99270.34;;;5.02;50.11
70488;BME280;57976;48.174;16.370;2023-03-18T04:26:16;99268.26;;;5.02;50.20
70488;BME280;57976;48.174;16.370;2023-03-18T04:28:21;99268.98;;;5.02;50.30
70488;BME280;57976;48.174;16.370;2023-03-18T04:30:26;99273.73;;;5.02;50.31
70488;BME280;57976;48.174;16.370;2023-03-18T04:32:36;99273.19;;;4.99;50.47
70488;BME280;57976;48.174;16.370;2023-03-18T04:34:41;99271.36;;;4.96;50.50
70488;BME280;57976;48.174;16.370;2023-03-18T04:36:46;99270.63;;;4.94;50.67
70488;BME280;57976;48.174;16.370;2023-03-18T04:38:52;99266.63;;;4.90;50.48
70488;BME280;57976;48.174;16.370;2023-03-18T04:40:56;99263.75;;;4.89;50.57
70488;BME280;57976;48.174;16.370;2023-03-18T04:43:01;99263.58;;;4.87;50.76
70488;BME280;57976;48.174;16.370;2023-03-18T04:45:07;99267.67;;;4.87;50.78
70488;BME280;57976;48.174;16.370;2023-03-18T04:47:13;99271.73;;;4.85;50.70
70488;BME280;57976;48.174;16.370;2023-03-18T04:49:18;99270.67;;;4.83;50.77
70488;BME280;57976;48.174;16.370;2023-03-18T04:51:23;99273.75;;;4.81;50.84
70488;BME280;57976;48.174;16.370;2023-03-18T04:53:28;99280.02;;;4.80;51.23
70488;BME280;57976;48.174;16.370;2023-03-18T04:55:36;99281.11;;;4.80;50.97
70488;BME280;57976;48.174;16.370;2023-03-18T04:57:43;99279.48;;;4.79;51.15
70488;BME280;57976;48.174;16.370;2023-03-18T04:59:50;99279.71;;;4.76;51.00
70488;BME280;57976;48.174;16.370;2023-03-18T05:01:55;99269.76;;;4.74;51.20
70488;BME280;57976;48.174;16.370;2023-03-18T05:04:00;99270.48;;;4.74;51.15
70488;BME280;57976;48.174;16.370;2023-03-18T05:06:21;99271.61;;;4.72;51.16
70488;BME280;57976;48.174;16.370;2023-03-18T05:08:39;99271.38;;;4.69;51.28
70488;BME280;57976;48.174;16.370;2023-03-18T05:10:47;99270.98;;;4.68;51.39
70488;BME280;57976;48.174;16.370;2023-03-18T05:12:52;99273.25;;;4.66;51.28
70488;BME280;57976;48.174;16.370;2023-03-18T05:15:04;99275.46;;;4.66;51.45
70488;BME280;57976;48.174;16.370;2023-03-18T05:17:12;99279.45;;;4.64;51.51
70488;BME280;57976;48.174;16.370;2023-03-18T05:19:19;99279.88;;;4.62;51.42
70488;BME280;57976;48.174;16.370;2023-03-18T05:21:30;99283.21;;;4.62;51.50
70488;BME280;57976;48.174;16.370;2023-03-18T05:23:35;99280.52;;;4.61;51.46
70488;BME280;57976;48.174;16.370;2023-03-18T05:25:40;99287.36;;;4.61;51.74
70488;BME280;57976;48.174;16.370;2023-03-18T05:27:45;99283.73;;;4.60;51.65
70488;BME280;57976;48.174;16.370;2023-03-18T05:29:57;99290.40;;;4.61;51.54
70488;BME280;57976;48.174;16.370;2023-03-18T05:32:10;99290.73;;;4.61;51.33
70488;BME280;57976;48.174;16.370;2023-03-18T05:34:19;99291.36;;;4.63;51.36
70488;BME280;57976;48.174;16.370;2023-03-18T05:36:24;99294.30;;;4.65;51.65
70488;BME280;57976;48.174;16.370;2023-03-18T05:38:34;99294.39;;;4.69;51.68
70488;BME280;57976;48.174;16.370;2023-03-18T05:40:39;99292.22;;;4.72;51.58
70488;BME280;57976;48.174;16.370;2023-03-18T05:42:48;99294.09;;;4.75;51.72
70488;BME280;57976;48.174;16.370;2023-03-18T05:45:08;99292.79;;;4.78;51.40
70488;BME280;57976;48.174;16.370;2023-03-18T05:47:20;99292.39;;;4.83;51.43
70488;BME280;57976;48.174;16.370;2023-03-18T05:49:36;99298.52;;;4.88;51.08
70488;BME280;57976;48.174;16.370;2023-03-18T05:52:06;99303.56;;;4.95;51.26
70488;BME280;57976;48.174;16.370;2023-03-18T05:54:18;99304.23;;;5.03;51.28
70488;BME280;57976;48.174;16.370;2023-03-18T05:56:23;99304.15;;;5.08;51.11
70488;BME280;57976;48.174;16.370;2023-03-18T05:58:29;99303.45;;;5.13;50.58
70488;BME280;57976;48.174;16.370;2023-03-18T06:00:44;99304.52;;;5.20;50.87
70488;BME280;57976;48.174;16.370;2023-03-18T06:02:49;99309.05;;;5.25;50.77
70488;BME280;57976;48.174;16.370;2023-03-18T06:04:54;99312.17;;;5.32;50.60
70488;BME280;57976;48.174;16.370;2023-03-18T06:07:00;99321.17;;;5.38;50.32
70488;BME280;57976;48.174;16.370;2023-03-18T06:09:09;99321.73;;;5.47;50.32
70488;BME280;57976;48.174;16.370;2023-03-18T06:11:14;99318.44;;;5.55;50.15
70488;BME280;57976;48.174;16.370;2023-03-18T06:13:19;99323.01;;;5.61;50.11
70488;BME280;57976;48.174;16.370;2023-03-18T06:15:24;99325.67;;;5.65;49.72
70488;BME280;57976;48.174;16.370;2023-03-18T06:17:29;99327.94;;;5.72;50.01
70488;BME280;57976;48.174;16.370;2023-03-18T06:19:33;99324.79;;;5.78;49.73
70488;BME280;57976;48.174;16.370;2023-03-18T06:21:38;99326.91;;;5.83;49.58
70488;BME280;57976;48.174;16.370;2023-03-18T06:23:43;99331.09;;;5.88;49.31
70488;BME280;57976;48.174;16.370;2023-03-18T06:25:48;99331.11;;;5.91;49.17
70488;BME280;57976;48.174;16.370;2023-03-18T06:27:54;99330.89;;;5.96;49.12
70488;BME280;57976;48.174;16.370;2023-03-18T06:30:00;99328.58;;;6.02;49.22
70488;BME280;57976;48.174;16.370;2023-03-18T06:32:06;99326.18;;;6.08;48.75
70488;BME280;57976;48.174;16.370;2023-03-18T06:34:10;99326.35;;;6.14;49.44
70488;BME280;57976;48.174;16.370;2023-03-18T06:36:15;99327.27;;;6.22;49.40
70488;BME280;57976;48.174;16.370;2023-03-18T06:38:23;99332.98;;;6.29;49.10
70488;BME280;57976;48.174;16.370;2023-03-18T06:40:28;99334.63;;;6.37;48.71
70488;BME280;57976;48.174;16.370;2023-03-18T06:42:34;99333.23;;;6.43;48.30
70488;BME280;57976;48.174;16.370;2023-03-18T06:44:59;99329.92;;;6.44;48.13
70488;BME280;57976;48.174;16.370;2023-03-18T06:47:15;99330.59;;;6.45;48.06
70488;BME280;57976;48.174;16.370;2023-03-18T06:49:26;99332.30;;;6.45;47.91
70488;BME280;57976;48.174;16.370;2023-03-18T06:51:36;99338.73;;;6.45;47.94
70488;BME280;57976;48.174;16.370;2023-03-18T06:53:40;99337.45;;;6.46;47.70
70488;BME280;57976;48.174;16.370;2023-03-18T06:55:46;99335.38;;;6.49;47.93
70488;BME280;57976;48.174;16.370;2023-03-18T06:57:51;99337.37;;;6.49;47.89
70488;BME280;57976;48.174;16.370;2023-03-18T06:59:59;99342.15;;;6.51;47.68
70488;BME280;57976;48.174;16.370;2023-03-18T07:02:04;99338.79;;;6.55;47.79
70488;BME280;57976;48.174;16.370;2023-03-18T07:04:09;99340.07;;;6.60;47.64
70488;BME280;57976;48.174;16.370;2023-03-18T07:06:14;99343.16;;;6.65;47.48
70488;BME280;57976;48.174;16.370;2023-03-18T07:08:19;99338.92;;;6.68;47.03
70488;BME280;57976;48.174;16.370;2023-03-18T07:10:27;99339.47;;;6.74;47.43
70488;BME280;57976;48.174;16.370;2023-03-18T07:12:38;99340.58;;;6.81;47.29
70488;BME280;57976;48.174;16.370;2023-03-18T07:14:43;99342.18;;;6.91;47.10
70488;BME280;57976;48.174;16.370;2023-03-18T07:16:49;99346.70;;;6.98;47.05
70488;BME280;57976;48.174;16.370;2023-03-18T07:18:53;99345.39;;;7.04;46.74
70488;BME280;57976;48.174;16.370;2023-03-18T07:20:58;99344.80;;;7.08;46.54
70488;BME280;57976;48.174;16.370;2023-03-18T07:23:03;99343.91;;;7.14;46.44
70488;BME280;57976;48.174;16.370;2023-03-18T07:25:09;99345.21;;;7.22;46.28
70488;BME280;57976;48.174;16.370;2023-03-18T07:27:14;99341.59;;;7.30;46.27
70488;BME280;57976;48.174;16.370;2023-03-18T07:29:19;99341.06;;;7.38;46.17
70488;BME280;57976;48.174;16.370;2023-03-18T07:31:24;99344.39;;;7.50;46.16
70488;BME280;57976;48.174;16.370;2023-03-18T07:33:29;99347.23;;;7.63;45.95
70488;BME280;57976;48.174;16.370;2023-03-18T07:35:33;99349.80;;;7.77;45.88
70488;BME280;57976;48.174;16.370;2023-03-18T07:37:42;99349.59;;;7.90;45.44
70488;BME280;57976;48.174;16.370;2023-03-18T07:39:46;99357.74;;;8.02;45.32
70488;BME280;57976;48.174;16.370;2023-03-18T07:41:51;99358.77;;;8.11;44.86
70488;BME280;57976;48.174;16.370;2023-03-18T07:44:03;99361.83;;;8.19;44.69
70488;BME280;57976;48.174;16.370;2023-03-18T07:46:08;99356.73;;;8.27;44.75
70488;BME280;57976;48.174;16.370;2023-03-18T07:48:13;99364.23;;;8.35;44.58
70488;BME280;57976;48.174;16.370;2023-03-18T07:50:19;99359.22;;;8.38;44.48
70488;BME280;57976;48.174;16.370;2023-03-18T07:52:24;99360.34;;;8.43;44.26
70488;BME280;57976;48.174;16.370;2023-03-18T07:54:29;99362.73;;;8.52;44.02
70488;BME280;57976;48.174;16.370;2023-03-18T07:56:34;99362.34;;;8.61;43.98
70488;BME280;57976;48.174;16.370;2023-03-18T07:58:38;99360.69;;;8.70;43.93
70488;BME280;57976;48.174;16.370;2023-03-18T08:00:43;99364.89;;;8.76;43.98
70488;BME280;57976;48.174;16.370;2023-03-18T08:02:48;99363.61;;;8.82;43.91
70488;BME280;57976;48.174;16.370;2023-03-18T08:04:53;99359.41;;;8.90;44.36
70488;BME280;57976;48.174;16.370;2023-03-18T08:06:58;99362.52;;;8.97;44.05
70488;BME280;57976;48.174;16.370;2023-03-18T08:09:03;99358.88;;;9.00;44.03
70488;BME280;57976;48.174;16.370;2023-03-18T08:11:08;99364.86;;;9.09;43.62
70488;BME280;57976;48.174;16.370;2023-03-18T08:13:13;99360.02;;;9.18;43.65
70488;BME280;57976;48.174;16.370;2023-03-18T08:15:18;99361.36;;;9.21;43.52
70488;BME280;57976;48.174;16.370;2023-03-18T08:17:23;99365.89;;;9.29;43.52
70488;BME280;57976;48.174;16.370;2023-03-18T08:19:28;99363.04;;;9.40;43.38
70488;BME280;57976;48.174;16.370;2023-03-18T08:21:33;99363.35;;;9.52;43.04
70488;BME280;57976;48.174;16.370;2023-03-18T08:23:38;99371.77;;;9.62;42.75
70488;BME280;57976;48.174;16.370;2023-03-18T08:25:45;99373.00;;;9.69;42.93
70488;BME280;57976;48.174;16.370;2023-03-18T08:27:50;99372.60;;;9.77;42.22
70488;BME280;57976;48.174;16.370;2023-03-18T08:29:54;99374.23;;;9.82;42.68
70488;BME280;57976;48.174;16.370;2023-03-18T08:31:59;99373.80;;;9.85;42.41
70488;BME280;57976;48.174;16.370;2023-03-18T08:34:04;99376.02;;;9.90;43.10
70488;BME280;57976;48.174;16.370;2023-03-18T08:36:09;99374.05;;;9.94;42.54
70488;BME280;57976;48.174;16.370;2023-03-18T08:38:14;99376.55;;;9.94;42.32
70488;BME280;57976;48.174;16.370;2023-03-18T08:40:19;99376.73;;;9.97;42.56
70488;BME280;57976;48.174;16.370;2023-03-18T08:42:24;99376.88;;;9.98;42.08
70488;BME280;57976;48.174;16.370;2023-03-18T08:44:28;99381.48;;;10.01;42.16
70488;BME280;57976;48.174;16.370;2023-03-18T08:46:33;99375.43;;;10.03;41.52
70488;BME280;57976;48.174;16.370;2023-03-18T08:48:38;99382.48;;;10.06;41.98
70488;BME280;57976;48.174;16.370;2023-03-18T08:50:43;99383.00;;;10.09;42.20
70488;BME280;57976;48.174;16.370;2023-03-18T08:52:47;99380.90;;;10.10;41.89
70488;BME280;57976;48.174;16.370;2023-03-18T08:54:52;99378.83;;;10.12;41.52
70488;BME280;57976;48.174;16.370;2023-03-18T08:56:57;99382.91;;;10.15;41.28
70488;BME280;57976;48.174;16.370;2023-03-18T08:59:01;99378.65;;;10.18;41.47
70488;BME280;57976;48.174;16.370;2023-03-18T09:01:06;99380.63;;;10.18;41.17
70488;BME280;57976;48.174;16.370;2023-03-18T09:03:16;99377.40;;;10.12;41.38
70488;BME280;57976;48.174;16.370;2023-03-18T09:05:21;99378.45;;;10.16;41.23
70488;BME280;57976;48.174;16.370;2023-03-18T09:07:26;99376.45;;;10.17;41.02
70488;BME280;57976;48.174;16.370;2023-03-18T09:09:31;99374.74;;;10.19;40.69
70488;BME280;57976;48.174;16.370;2023-03-18T09:11:47;99369.02;;;10.19;40.72
70488;BME280;57976;48.174;16.370;2023-03-18T09:13:52;99367.48;;;10.18;40.39
70488;BME280;57976;48.174;16.370;2023-03-18T09:15:56;99366.61;;;10.16;41.05
70488;BME280;57976;48.174;16.370;2023-03-18T09:18:01;99368.86;;;10.15;40.52
70488;BME280;57976;48.174;16.370;2023-03-18T09:20:17;99370.04;;;10.21;40.95
70488;BME280;57976;48.174;16.370;2023-03-18T09:22:22;99364.06;;;10.23;40.81
70488;BME280;57976;48.174;16.370;2023-03-18T09:24:27;99364.57;;;10.28;40.76
70488;BME280;57976;48.174;16.370;2023-03-18T09:26:31;99362.88;;;10.29;40.88
70488;BME280;57976;48.174;16.370;2023-03-18T09:28:36;99366.77;;;10.31;40.44
70488;BME280;57976;48.174;16.370;2023-03-18T09:30:41;99366.45;;;10.32;40.51
70488;BME280;57976;48.174;16.370;2023-03-18T09:32:46;99367.41;;;10.38;40.81
70488;BME280;57976;48.174;16.370;2023-03-18T09:34:52;99367.71;;;10.46;40.84
70488;BME280;57976;48.174;16.370;2023-03-18T09:36:57;99368.86;;;10.53;40.11
70488;BME280;57976;48.174;16.370;2023-03-18T09:39:01;99369.70;;;10.60;40.54
70488;BME280;57976;48.174;16.370;2023-03-18T09:41:12;99364.78;;;10.69;40.19
70488;BME280;57976;48.174;16.370;2023-03-18T09:43:35;99368.69;;;10.78;39.93
70488;BME280;57976;48.174;16.370;2023-03-18T09:45:55;99363.75;;;10.85;40.00
70488;BME280;57976;48.174;16.370;2023-03-18T09:48:32;99362.20;;;10.90;39.96
70488;BME280;57976;48.174;16.370;2023-03-18T09:50:46;99355.91;;;10.98;39.58
70488;BME280;57976;48.174;16.370;2023-03-18T09:53:08;99355.15;;;11.07;39.59
70488;BME280;57976;48.174;16.370;2023-03-18T09:55:22;99353.55;;;11.18;39.67
70488;BME280;57976;48.174;16.370;2023-03-18T09:57:30;99348.80;;;11.28;39.44
70488;BME280;57976;48.174;16.370;2023-03-18T09:59:39;99347.61;;;11.36;38.87
70488;BME280;57976;48.174;16.370;2023-03-18T10:01:47;99346.83;;;11.42;38.06
70488;BME280;57976;48.174;16.370;2023-03-18T10:04:00;99346.63;;;11.49;38.44
70488;BME280;57976;48.174;16.370;2023-03-18T10:06:11;99348.14;;;11.58;38.37
70488;BME280;57976;48.174;16.370;2023-03-18T10:08:22;99347.63;;;11.66;37.86
70488;BME280;57976;48.174;16.370;2023-03-18T10:10:31;99345.52;;;11.74;38.08
70488;BME280;57976;48.174;16.370;2023-03-18T10:12:40;99341.83;;;11.81;37.83
70488;BME280;57976;48.174;16.370;2023-03-18T10:14:50;99341.86;;;11.89;37.80
70488;BME280;57976;48.174;16.370;2023-03-18T10:17:07;99340.59;;;11.95;37.62
70488;BME280;57976;48.174;16.370;2023-03-18T10:19:16;99342.48;;;12.02;37.76
70488;BME280;57976;48.174;16.370;2023-03-18T10:21:28;99340.27;;;12.08;37.61
70488;BME280;57976;48.174;16.370;2023-03-18T10:23:44;99340.36;;;12.07;38.03
70488;BME280;57976;48.174;16.370;2023-03-18T10:25:52;99339.84;;;12.09;37.36
70488;BME280;57976;48.174;16.370;2023-03-18T10:28:17;99336.64;;;12.14;37.62
70488;BME280;57976;48.174;16.370;2023-03-18T10:30:44;99339.09;;;12.19;37.42
70488;BME280;57976;48.174;16.370;2023-03-18T10:32:58;99338.79;;;12.23;37.61
70488;BME280;57976;48.174;16.370;2023-03-18T10:35:18;99339.01;;;12.31;37.54
70488;BME280;57976;48.174;16.370;2023-03-18T10:37:38;99336.89;;;12.38;37.62
70488;BME280;57976;48.174;16.370;2023-03-18T10:39:45;99338.71;;;12.43;37.30
70488;BME280;57976;48.174;16.370;2023-03-18T10:41:51;99336.40;;;12.46;37.65
70488;BME280;57976;48.174;16.370;2023-03-18T10:43:57;99331.95;;;12.49;37.36
70488;BME280;57976;48.174;16.370;2023-03-18T10:46:07;99334.66;;;12.50;37.58
70488;BME280;57976;48.174;16.370;2023-03-18T10:48:19;99333.61;;;12.53;37.26
70488;BME280;57976;48.174;16.370;2023-03-18T10:50:33;99338.27;;;12.59;37.37
70488;BME280;57976;48.174;16.370;2023-03-18T10:52:44;99331.77;;;12.66;37.39
70488;BME280;57976;48.174;16.370;2023-03-18T10:54:50;99329.97;;;12.73;37.13
70488;BME280;57976;48.174;16.370;2023-03-18T10:56:55;99331.06;;;12.75;37.19
70488;BME280;57976;48.174;16.370;2023-03-18T10:58:59;99329.61;;;12.79;37.16
70488;BME280;57976;48.174;16.370;2023-03-18T11:01:08;99332.08;;;12.84;37.33
70488;BME280;57976;48.174;16.370;2023-03-18T11:03:23;99327.14;;;12.91;37.25
70488;BME280;57976;48.174;16.370;2023-03-18T11:05:35;99323.28;;;13.02;37.04
70488;BME280;57976;48.174;16.370;2023-03-18T11:07:57;99325.51;;;13.11;37.14
70488;BME280;57976;48.174;16.370;2023-03-18T11:10:15;99318.88;;;13.23;37.05
70488;BME280;57976;48.174;16.370;2023-03-18T11:12:24;99322.84;;;13.32;36.89
70488;BME280;57976;48.174;16.370;2023-03-18T11:14:30;99320.27;;;13.39;36.85